Time;durP1;ratioP1;P1;durP2;ratioP2;P2;SDS_P1;SDS_P2;PMS_P1;PMS_P2;Temp;Humidity;BMP_temperature;BMP_pressure;BME280_temperature;BME280_humidity;BME280_pressure;Samples;Min_cycle;Max_cycle;Signal;HPM_P1;HPM_P2
2020/12/25 00:02:13;;;;;;;14.67;8.23;;;;;;;;;;5032813;28;20437;-49
2020/12/25 00:04:39;;;;;;;18.63;13.20;;;;;;;;;;5031987;28;20442;-49
2020/12/25 00:07:06;;;;;;;9.80;6.60;;;;;;;;;;5033449;28;20435;-48
2020/12/25 00:09:32;;;;;;;12.52;9.60;;;;;;;;;;5036747;28;20496;-49
2020/12/25 00:11:59;;;;;;;48.50;27.50;;;;;;;;;;5033383;28;20279;-50
2020/12/25 00:14:25;;;;;;;7.22;6.45;;;;;;;;;;5039774;28;20208;-51
2020/12/25 00:16:51;;;;;;;15.07;7.68;;;;;;;;;;5052046;28;20167;-52
2020/12/25 00:19:17;;;;;;;101.68;59.33;;;;;;;;;;5053270;28;20914;-50
2020/12/25 00:21:43;;;;;;;42.73;26.20;;;;;;;;;;5052981;28;20194;-51
2020/12/25 00:24:10;;;;;;;24.90;17.50;;;;;;;;;;5051842;28;20495;-50
2020/12/25 00:26:36;;;;;;;7.13;5.50;;;;;;;;;;5053116;28;20431;-50
2020/12/25 00:29:03;;;;;;;110.47;66.13;;;;;;;;;;5049841;28;20257;-50
2020/12/25 00:31:29;;;;;;;18.08;13.20;;;;;;;;;;5052766;28;20665;-50
2020/12/25 00:33:59;;;;;;;7.93;5.07;;;;;;;;;;5046595;28;20167;-51
2020/12/25 00:36:29;;;;;;;9.30;7.00;;;;;;;;;;5033184;28;20667;-49
2020/12/25 00:38:56;;;;;;;12.68;9.13;;;;;;;;;;5032807;28;20233;-50
2020/12/25 00:41:22;;;;;;;8.13;6.47;;;;;;;;;;5032691;28;20166;-51
2020/12/25 00:43:48;;;;;;;12.48;5.80;;;;;;;;;;5032863;28;20253;-48
2020/12/25 00:46:14;;;;;;;40.90;26.98;;;;;;;;;;5033009;28;20175;-48
2020/12/25 00:48:41;;;;;;;15.57;7.78;;;;;;;;;;5032981;28;20233;-49
2020/12/25 00:51:20;;;;;;;8.65;6.15;;;;;;;;;;5032505;28;20259;-52
2020/12/25 00:53:46;;;;;;;12.13;8.57;;;;;;;;;;5032780;28;20261;-49
2020/12/25 00:56:13;;;;;;;34.10;24.33;;;;;;;;;;5032967;28;20499;-51
2020/12/25 00:58:39;;;;;;;21.48;13.63;;;;;;;;;;5032574;28;20697;-49
2020/12/25 01:01:05;;;;;;;17.65;10.45;;;;;;;;;;5052186;28;20177;-52
2020/12/25 01:03:32;;;;;;;40.97;26.98;;;;;;;;;;5052402;28;20201;-49
2020/12/25 01:05:58;;;;;;;35.75;23.55;;;;;;;;;;5052283;28;20669;-49
2020/12/25 01:08:24;;;;;;;26.20;15.57;;;;;;;;;;5052311;28;20203;-49
2020/12/25 01:10:50;;;;;;;24.90;11.32;;;;;;;;;;5052435;28;20389;-48
2020/12/25 01:13:16;;;;;;;17.42;7.80;;;;;;;;;;5051884;28;20195;-48
2020/12/25 01:15:42;;;;;;;8.27;6.32;;;;;;;;;;5052357;28;20178;-48
2020/12/25 01:18:09;;;;;;;8.80;6.40;;;;;;;;;;5052008;28;20205;-48
2020/12/25 01:20:35;;;;;;;77.20;43.80;;;;;;;;;;5052297;28;20567;-51
2020/12/25 01:23:01;;;;;;;11.93;6.88;;;;;;;;;;5051654;28;20676;-48
2020/12/25 01:25:27;;;;;;;104.90;42.90;;;;;;;;;;5052204;28;20176;-48
2020/12/25 01:27:53;;;;;;;12.17;6.73;;;;;;;;;;5052102;28;20185;-49
2020/12/25 01:30:19;;;;;;;21.88;10.43;;;;;;;;;;5048165;28;20483;-49
2020/12/25 01:32:45;;;;;;;8.20;5.37;;;;;;;;;;5051740;28;20273;-48
2020/12/25 01:35:11;;;;;;;24.83;14.73;;;;;;;;;;5051820;28;20396;-50
2020/12/25 01:37:37;;;;;;;24.17;11.30;;;;;;;;;;5051730;28;20567;-49
2020/12/25 01:40:04;;;;;;;20.73;8.98;;;;;;;;;;5051731;28;20494;-51
2020/12/25 01:42:30;;;;;;;8.15;6.40;;;;;;;;;;5051541;28;20188;-48
2020/12/25 01:44:56;;;;;;;22.60;11.20;;;;;;;;;;5051774;28;20608;-49
2020/12/25 01:47:23;;;;;;;11.57;5.63;;;;;;;;;;5051547;28;20408;-48
2020/12/25 01:49:49;;;;;;;13.88;7.15;;;;;;;;;;5051700;28;20196;-50
2020/12/25 01:52:15;;;;;;;14.43;7.72;;;;;;;;;;5032437;28;20198;-52
2020/12/25 01:54:44;;;;;;;7.32;5.30;;;;;;;;;;5031394;28;20170;-50
2020/12/25 01:57:12;;;;;;;18.30;7.97;;;;;;;;;;5031630;28;20598;-50
2020/12/25 01:59:39;;;;;;;12.85;6.93;;;;;;;;;;5044396;28;20178;-50
2020/12/25 02:02:05;;;;;;;7.15;5.50;;;;;;;;;;5049529;28;20224;-50
2020/12/25 02:04:32;;;;;;;16.63;7.50;;;;;;;;;;5050567;28;20210;-51
2020/12/25 02:06:58;;;;;;;16.13;6.60;;;;;;;;;;5051015;28;20772;-49
2020/12/25 02:09:23;;;;;;;10.93;6.20;;;;;;;;;;5050657;28;20175;-55
2020/12/25 02:11:50;;;;;;;14.57;9.53;;;;;;;;;;5051121;28;20430;-51
2020/12/25 02:14:16;;;;;;;8.63;4.85;;;;;;;;;;5051184;28;20410;-51
2020/12/25 02:16:42;;;;;;;5.45;4.22;;;;;;;;;;5051277;28;20773;-51
2020/12/25 02:19:10;;;;;;;6.87;5.10;;;;;;;;;;5051240;28;20275;-50
2020/12/25 02:21:36;;;;;;;10.35;5.45;;;;;;;;;;5050884;28;20402;-50
2020/12/25 02:24:03;;;;;;;4.57;3.30;;;;;;;;;;5051388;28;20202;-50
2020/12/25 02:26:30;;;;;;;7.55;4.43;;;;;;;;;;5031452;28;20414;-51
2020/12/25 02:28:56;;;;;;;7.10;4.07;;;;;;;;;;5033846;28;21018;-51
2020/12/25 02:31:22;;;;;;;10.73;4.40;;;;;;;;;;5050557;28;20181;-50
2020/12/25 02:33:48;;;;;;;4.37;3.07;;;;;;;;;;5050998;28;20177;-50
2020/12/25 02:36:14;;;;;;;8.50;3.70;;;;;;;;;;5050858;28;20411;-50
2020/12/25 02:38:40;;;;;;;4.47;3.50;;;;;;;;;;5050840;28;20462;-51
2020/12/25 02:41:06;;;;;;;8.70;4.03;;;;;;;;;;5050670;28;20702;-51
2020/12/25 02:43:32;;;;;;;8.60;5.95;;;;;;;;;;5047459;28;20471;-52
2020/12/25 02:45:58;;;;;;;11.73;3.30;;;;;;;;;;5030913;28;20165;-51
2020/12/25 02:48:24;;;;;;;3.80;2.70;;;;;;;;;;5030641;28;20402;-50
2020/12/25 02:50:50;;;;;;;19.57;4.30;;;;;;;;;;5030815;28;20977;-50
2020/12/25 02:53:16;;;;;;;4.67;3.27;;;;;;;;;;5030276;28;20857;-51
2020/12/25 02:55:42;;;;;;;9.43;4.27;;;;;;;;;;5030560;28;20401;-50
2020/12/25 02:58:08;;;;;;;5.85;2.70;;;;;;;;;;5030735;28;20460;-51
2020/12/25 03:00:34;;;;;;;10.23;3.43;;;;;;;;;;5042525;28;20168;-51
2020/12/25 03:03:00;;;;;;;7.87;3.03;;;;;;;;;;5049969;28;20483;-51
2020/12/25 03:05:26;;;;;;;5.40;2.70;;;;;;;;;;5050321;28;20415;-51
2020/12/25 03:07:52;;;;;;;3.37;2.60;;;;;;;;;;5050653;28;20410;-51
2020/12/25 03:10:18;;;;;;;3.67;2.30;;;;;;;;;;5050224;28;20496;-50
2020/12/25 03:12:44;;;;;;;3.17;2.20;;;;;;;;;;5049974;28;20422;-51
2020/12/25 03:15:10;;;;;;;4.97;2.80;;;;;;;;;;5050476;28;20411;-51
2020/12/25 03:17:36;;;;;;;5.30;3.07;;;;;;;;;;5050118;28;20455;-52
2020/12/25 03:20:02;;;;;;;3.73;2.47;;;;;;;;;;5050430;28;20406;-51
2020/12/25 03:22:27;;;;;;;5.50;2.20;;;;;;;;;;5053599;28;20432;-50
2020/12/25 03:24:53;;;;;;;14.00;2.70;;;;;;;;;;5054541;28;20403;-49
2020/12/25 03:27:19;;;;;;;9.03;4.40;;;;;;;;;;5054341;28;20440;-51
2020/12/25 03:29:45;;;;;;;3.90;2.40;;;;;;;;;;5051249;28;20421;-50
2020/12/25 03:32:11;;;;;;;5.13;2.00;;;;;;;;;;5054025;28;20424;-51
2020/12/25 03:34:37;;;;;;;16.77;2.53;;;;;;;;;;5054440;28;20482;-51
2020/12/25 03:37:03;;;;;;;5.93;2.10;;;;;;;;;;5054602;28;20402;-51
2020/12/25 03:39:29;;;;;;;8.90;2.40;;;;;;;;;;5054285;28;20452;-51
2020/12/25 03:41:55;;;;;;;3.23;2.73;;;;;;;;;;5054299;28;20848;-52
2020/12/25 03:44:21;;;;;;;2.60;2.20;;;;;;;;;;5054473;28;20760;-52
2020/12/25 03:46:47;;;;;;;7.70;2.23;;;;;;;;;;5042602;28;20427;-51
2020/12/25 03:49:13;;;;;;;3.40;2.60;;;;;;;;;;5054271;28;20418;-50
2020/12/25 03:51:39;;;;;;;8.57;2.90;;;;;;;;;;5043213;28;20971;-51
2020/12/25 03:54:05;;;;;;;4.70;2.03;;;;;;;;;;5034054;28;20443;-50
2020/12/25 03:56:31;;;;;;;7.63;2.40;;;;;;;;;;5033935;28;20256;-51
2020/12/25 03:58:57;;;;;;;5.00;2.10;;;;;;;;;;5033745;28;20449;-50
2020/12/25 04:01:23;;;;;;;7.03;2.03;;;;;;;;;;5025266;28;20203;-50
2020/12/25 04:03:49;;;;;;;2.57;2.37;;;;;;;;;;5053795;28;20569;-49
2020/12/25 04:06:15;;;;;;;5.90;2.20;;;;;;;;;;5053836;28;20476;-50
2020/12/25 04:08:41;;;;;;;10.10;2.30;;;;;;;;;;5053584;28;20406;-50
2020/12/25 04:11:08;;;;;;;5.63;2.25;;;;;;;;;;5053345;28;20453;-49
2020/12/25 04:13:34;;;;;;;5.93;2.30;;;;;;;;;;5053504;28;20278;-51
2020/12/25 04:16:01;;;;;;;3.13;2.05;;;;;;;;;;5053483;28;20199;-53
2020/12/25 04:18:27;;;;;;;5.50;2.00;;;;;;;;;;5051893;28;20233;-49
2020/12/25 04:20:53;;;;;;;7.78;2.08;;;;;;;;;;5053580;28;20199;-50
2020/12/25 04:23:19;;;;;;;14.50;2.70;;;;;;;;;;5053106;28;20210;-52
2020/12/25 04:25:44;;;;;;;11.33;2.57;;;;;;;;;;5053371;28;20446;-50
2020/12/25 04:28:10;;;;;;;11.77;2.57;;;;;;;;;;5053401;28;20405;-50
2020/12/25 04:30:36;;;;;;;6.87;1.90;;;;;;;;;;5049165;28;20434;-51
2020/12/25 04:33:02;;;;;;;3.73;2.10;;;;;;;;;;5038089;28;20440;-50
2020/12/25 04:35:28;;;;;;;5.80;2.03;;;;;;;;;;5033117;28;20413;-50
2020/12/25 04:37:54;;;;;;;4.47;3.80;;;;;;;;;;5032605;28;20477;-50
2020/12/25 04:40:20;;;;;;;4.97;2.92;;;;;;;;;;5032562;28;20917;-50
2020/12/25 04:42:50;;;;;;;10.93;2.65;;;;;;;;;;5031628;28;20194;-50
2020/12/25 04:45:16;;;;;;;1.80;1.60;;;;;;;;;;5033281;28;20176;-50
2020/12/25 04:47:43;;;;;;;4.43;1.88;;;;;;;;;;5032802;28;20247;-51
2020/12/25 04:50:09;;;;;;;6.57;1.85;;;;;;;;;;5033065;28;20179;-51
2020/12/25 04:52:35;;;;;;;6.00;2.40;;;;;;;;;;5032670;28;20195;-52
2020/12/25 04:55:01;;;;;;;10.07;2.23;;;;;;;;;;5032987;28;20414;-52
2020/12/25 04:57:27;;;;;;;12.00;2.40;;;;;;;;;;5032632;28;20410;-51
2020/12/25 04:59:53;;;;;;;4.63;2.65;;;;;;;;;;5032664;28;20516;-50
2020/12/25 05:02:21;;;;;;;3.53;2.53;;;;;;;;;;5040837;28;20637;-50
2020/12/25 05:04:47;;;;;;;6.18;2.63;;;;;;;;;;5052476;28;20476;-52
2020/12/25 05:07:14;;;;;;;12.45;3.08;;;;;;;;;;5052708;28;20167;-51
2020/12/25 05:09:40;;;;;;;9.63;3.17;;;;;;;;;;5052582;28;20167;-51
2020/12/25 05:12:11;;;;;;;10.73;3.00;;;;;;;;;;5052159;28;20269;-51
2020/12/25 05:14:41;;;;;;;3.97;2.20;;;;;;;;;;5052495;28;20405;-52
2020/12/25 05:17:09;;;;;;;6.85;3.10;;;;;;;;;;5052456;28;20744;-50
2020/12/25 05:19:35;;;;;;;7.57;2.30;;;;;;;;;;5052348;28;20224;-50
2020/12/25 05:22:01;;;;;;;6.13;1.90;;;;;;;;;;5051988;28;20195;-52
2020/12/25 05:24:35;;;;;;;5.32;2.22;;;;;;;;;;5052471;28;20248;-50
2020/12/25 05:27:01;;;;;;;11.05;2.67;;;;;;;;;;5052432;28;20527;-50
2020/12/25 05:29:31;;;;;;;4.60;2.75;;;;;;;;;;5052184;28;20171;-52
2020/12/25 05:31:57;;;;;;;4.50;3.55;;;;;;;;;;5046733;28;20199;-52
2020/12/25 05:34:23;;;;;;;9.80;3.40;;;;;;;;;;5052108;28;20258;-50
2020/12/25 05:36:50;;;;;;;6.45;2.53;;;;;;;;;;5051944;28;20420;-50
2020/12/25 05:39:32;;;;;;;8.35;2.83;;;;;;;;;;5051985;28;20216;-51
2020/12/25 05:42:08;;;;;;;10.25;3.00;;;;;;;;;;5050796;28;20202;-52
2020/12/25 05:44:41;;;;;;;7.85;4.43;;;;;;;;;;5051475;28;20627;-50
2020/12/25 05:47:13;;;;;;;15.30;3.38;;;;;;;;;;5051931;28;20182;-50
2020/12/25 05:49:39;;;;;;;6.15;2.35;;;;;;;;;;5051735;28;20167;-52
2020/12/25 05:52:06;;;;;;;5.23;2.40;;;;;;;;;;5051690;28;20278;-52
2020/12/25 05:54:31;;;;;;;10.40;2.90;;;;;;;;;;5051892;28;20456;-50
2020/12/25 05:56:58;;;;;;;5.63;3.20;;;;;;;;;;5051866;28;20175;-51
2020/12/25 05:59:24;;;;;;;4.20;2.80;;;;;;;;;;5051815;28;20453;-50
2020/12/25 06:01:52;;;;;;;5.50;2.87;;;;;;;;;;5051668;28;20183;-50
2020/12/25 06:04:19;;;;;;;7.72;2.70;;;;;;;;;;5047763;28;20437;-52
2020/12/25 06:06:45;;;;;;;6.85;3.05;;;;;;;;;;5051542;28;20643;-51
2020/12/25 06:09:15;;;;;;;12.00;3.63;;;;;;;;;;5051634;28;20163;-51
2020/12/25 06:11:46;;;;;;;4.97;3.58;;;;;;;;;;5051044;28;20514;-51
2020/12/25 06:14:12;;;;;;;10.02;4.15;;;;;;;;;;5051577;28;20308;-50
2020/12/25 06:16:40;;;;;;;7.80;3.45;;;;;;;;;;5051314;28;20166;-50
2020/12/25 06:19:17;;;;;;;7.05;3.75;;;;;;;;;;5051291;28;20194;-50
2020/12/25 06:21:56;;;;;;;12.05;3.67;;;;;;;;;;5050930;28;20237;-50
2020/12/25 06:24:23;;;;;;;9.90;3.90;;;;;;;;;;5051542;28;20621;-50
2020/12/25 06:26:54;;;;;;;13.10;4.25;;;;;;;;;;5050963;28;20168;-51
2020/12/25 06:29:20;;;;;;;8.48;4.32;;;;;;;;;;5050949;28;20668;-49
2020/12/25 06:31:49;;;;;;;5.30;3.15;;;;;;;;;;5049444;28;20234;-49
2020/12/25 06:34:16;;;;;;;10.45;3.80;;;;;;;;;;5050965;28;20176;-51
2020/12/25 06:36:46;;;;;;;10.90;3.55;;;;;;;;;;5051007;28;20693;-52
2020/12/25 06:39:13;;;;;;;7.68;3.60;;;;;;;;;;5050786;28;20217;-50
2020/12/25 06:41:39;;;;;;;11.07;5.20;;;;;;;;;;5050563;28;20190;-50
2020/12/25 06:44:07;;;;;;;10.55;3.72;;;;;;;;;;5050722;28;20253;-50
2020/12/25 06:46:36;;;;;;;8.57;4.55;;;;;;;;;;5050817;28;20201;-50
2020/12/25 06:49:06;;;;;;;9.18;3.85;;;;;;;;;;5050704;28;20178;-50
2020/12/25 06:51:39;;;;;;;4.40;3.30;;;;;;;;;;5050502;28;20631;-51
2020/12/25 06:54:05;;;;;;;12.15;4.38;;;;;;;;;;5050752;28;20245;-50
2020/12/25 06:56:40;;;;;;;6.80;3.83;;;;;;;;;;5049693;28;20170;-51
2020/12/25 06:59:13;;;;;;;6.10;4.32;;;;;;;;;;5050582;28;20449;-51
2020/12/25 07:01:40;;;;;;;10.15;4.03;;;;;;;;;;5048597;28;20257;-50
2020/12/25 07:04:06;;;;;;;9.52;4.55;;;;;;;;;;5047997;28;20190;-50
2020/12/25 07:06:32;;;;;;;10.50;4.63;;;;;;;;;;5050517;28;20172;-51
2020/12/25 07:09:11;;;;;;;5.85;3.70;;;;;;;;;;5050546;28;20821;-51
2020/12/25 07:11:37;;;;;;;5.15;3.80;;;;;;;;;;5050116;28;20182;-50
2020/12/25 07:14:04;;;;;;;9.80;4.25;;;;;;;;;;5050539;28;20176;-50
2020/12/25 07:16:32;;;;;;;9.15;3.90;;;;;;;;;;5050495;28;20179;-49
2020/12/25 07:18:58;;;;;;;15.48;5.07;;;;;;;;;;5050422;28;20197;-52
2020/12/25 07:21:24;;;;;;;10.98;4.80;;;;;;;;;;5050067;28;20178;-51
2020/12/25 07:23:50;;;;;;;6.55;4.20;;;;;;;;;;5050385;28;20163;-50
2020/12/25 07:26:17;;;;;;;5.53;3.90;;;;;;;;;;5050397;28;20170;-52
2020/12/25 07:28:44;;;;;;;10.38;4.18;;;;;;;;;;5050304;28;20401;-51
2020/12/25 07:31:10;;;;;;;5.05;4.05;;;;;;;;;;5050103;28;20190;-50
2020/12/25 07:33:36;;;;;;;9.55;5.00;;;;;;;;;;5047074;28;20569;-51
2020/12/25 07:36:07;;;;;;;7.32;3.47;;;;;;;;;;5050223;28;20545;-50
2020/12/25 07:38:33;;;;;;;8.60;4.38;;;;;;;;;;5050188;28;20737;-50
2020/12/25 07:40:59;;;;;;;4.43;4.13;;;;;;;;;;5050233;28;20181;-51
2020/12/25 07:43:25;;;;;;;9.00;3.63;;;;;;;;;;5050094;28;20447;-52
2020/12/25 07:45:51;;;;;;;8.80;3.93;;;;;;;;;;5050155;28;20428;-52
2020/12/25 07:48:18;;;;;;;6.50;4.03;;;;;;;;;;5050207;28;20410;-52
2020/12/25 07:50:45;;;;;;;10.82;3.75;;;;;;;;;;5050069;28;20402;-49
2020/12/25 07:53:15;;;;;;;6.07;3.90;;;;;;;;;;5047341;28;20260;-49
2020/12/25 07:55:44;;;;;;;13.57;4.18;;;;;;;;;;5030161;28;20572;-49
2020/12/25 07:58:14;;;;;;;6.75;4.78;;;;;;;;;;5030265;28;20198;-51
2020/12/25 08:00:40;;;;;;;8.55;4.78;;;;;;;;;;5030278;28;20168;-50
2020/12/25 08:03:07;;;;;;;7.57;3.90;;;;;;;;;;5030706;28;20202;-52
2020/12/25 08:05:34;;;;;;;5.72;3.92;;;;;;;;;;5032126;28;20187;-51
2020/12/25 08:08:01;;;;;;;7.60;4.07;;;;;;;;;;5033473;28;20207;-50
2020/12/25 08:10:27;;;;;;;5.15;3.60;;;;;;;;;;5033567;28;20177;-51
2020/12/25 08:12:57;;;;;;;10.20;4.22;;;;;;;;;;5032378;28;20197;-51
2020/12/25 08:15:23;;;;;;;8.45;4.28;;;;;;;;;;5033751;28;20258;-50
2020/12/25 08:17:50;;;;;;;6.93;3.65;;;;;;;;;;5033464;28;20236;-51
2020/12/25 08:20:16;;;;;;;12.68;4.15;;;;;;;;;;5033791;28;20164;-50
2020/12/25 08:22:42;;;;;;;6.30;4.05;;;;;;;;;;5033287;28;20245;-51
2020/12/25 08:25:08;;;;;;;12.03;3.87;;;;;;;;;;5032080;28;20648;-51
2020/12/25 08:27:36;;;;;;;12.77;4.57;;;;;;;;;;5033519;28;20476;-51
2020/12/25 08:30:04;;;;;;;8.93;4.00;;;;;;;;;;5033160;28;20214;-51
2020/12/25 08:32:32;;;;;;;14.00;4.53;;;;;;;;;;5036245;28;20191;-51
2020/12/25 08:35:11;;;;;;;12.48;3.90;;;;;;;;;;5053533;28;20202;-51
2020/12/25 08:37:37;;;;;;;7.03;4.05;;;;;;;;;;5053178;28;20179;-49
2020/12/25 08:40:15;;;;;;;4.73;3.47;;;;;;;;;;5053078;28;20166;-51
2020/12/25 08:42:41;;;;;;;9.70;4.40;;;;;;;;;;5052767;28;20437;-50
2020/12/25 08:45:07;;;;;;;9.10;5.23;;;;;;;;;;5053158;28;20168;-50
2020/12/25 08:47:33;;;;;;;11.43;4.82;;;;;;;;;;5052959;28;20405;-50
2020/12/25 08:49:59;;;;;;;8.48;4.47;;;;;;;;;;5053079;28;20236;-52
2020/12/25 08:52:26;;;;;;;5.40;4.93;;;;;;;;;;5052560;28;20179;-51
2020/12/25 08:54:58;;;;;;;8.77;5.55;;;;;;;;;;5052888;28;20401;-50
2020/12/25 08:57:25;;;;;;;9.07;5.93;;;;;;;;;;5052895;28;20208;-50
2020/12/25 09:00:07;;;;;;;12.18;6.18;;;;;;;;;;5053053;28;20166;-50
2020/12/25 09:02:33;;;;;;;11.75;4.82;;;;;;;;;;5049588;28;20350;-51
2020/12/25 09:04:59;;;;;;;6.47;4.88;;;;;;;;;;5052645;28;20702;-52
2020/12/25 09:07:25;;;;;;;7.33;5.37;;;;;;;;;;5052603;28;20168;-51
2020/12/25 09:09:51;;;;;;;8.70;4.20;;;;;;;;;;5052605;28;20401;-51
2020/12/25 09:12:17;;;;;;;8.93;4.28;;;;;;;;;;5052353;28;20421;-50
2020/12/25 09:14:43;;;;;;;6.10;3.83;;;;;;;;;;5052531;28;20174;-51
2020/12/25 09:17:08;;;;;;;4.37;3.80;;;;;;;;;;5052501;28;20401;-51
2020/12/25 09:19:34;;;;;;;7.90;4.13;;;;;;;;;;5051407;28;20451;-50
2020/12/25 09:22:00;;;;;;;6.88;3.72;;;;;;;;;;5052069;28;20422;-50
2020/12/25 09:24:26;;;;;;;5.77;5.03;;;;;;;;;;5052317;28;20155;-51
2020/12/25 09:26:52;;;;;;;6.80;4.13;;;;;;;;;;5052406;28;20738;-50
2020/12/25 09:29:18;;;;;;;4.60;3.77;;;;;;;;;;5052410;28;20412;-50
2020/12/25 09:31:44;;;;;;;5.32;3.65;;;;;;;;;;5051767;28;20421;-50
2020/12/25 09:34:10;;;;;;;6.30;3.70;;;;;;;;;;5048236;28;20183;-51
2020/12/25 09:36:36;;;;;;;3.77;3.23;;;;;;;;;;5051894;28;20408;-50
2020/12/25 09:39:03;;;;;;;3.37;2.70;;;;;;;;;;5052082;28;20546;-51
2020/12/25 09:41:29;;;;;;;2.80;2.50;;;;;;;;;;5050495;28;20403;-51
2020/12/25 09:43:55;;;;;;;8.23;2.97;;;;;;;;;;5052094;28;20413;-50
2020/12/25 09:46:21;;;;;;;3.83;3.03;;;;;;;;;;5051883;28;20406;-50
2020/12/25 09:48:48;;;;;;;2.67;2.47;;;;;;;;;;5051991;28;20402;-50
2020/12/25 09:51:14;;;;;;;5.97;2.65;;;;;;;;;;5051651;28;20411;-50
2020/12/25 09:53:40;;;;;;;4.13;3.07;;;;;;;;;;5051656;28;20202;-50
2020/12/25 09:56:06;;;;;;;9.33;2.93;;;;;;;;;;5051973;28;20410;-50
2020/12/25 09:58:32;;;;;;;8.03;2.70;;;;;;;;;;5052121;28;20546;-51
2020/12/25 10:00:58;;;;;;;4.60;3.30;;;;;;;;;;5052215;28;20439;-50
2020/12/25 10:03:24;;;;;;;4.33;3.17;;;;;;;;;;5050405;28;20785;-49
2020/12/25 10:05:50;;;;;;;4.38;3.47;;;;;;;;;;5048539;28;20440;-50
2020/12/25 10:08:16;;;;;;;11.43;3.50;;;;;;;;;;5051574;28;20182;-50
2020/12/25 10:10:42;;;;;;;3.87;3.03;;;;;;;;;;5051513;28;20406;-50
2020/12/25 10:13:08;;;;;;;3.87;3.30;;;;;;;;;;5049891;28;20451;-50
2020/12/25 10:15:35;;;;;;;4.70;2.50;;;;;;;;;;5050761;28;20466;-50
2020/12/25 10:18:01;;;;;;;3.63;2.40;;;;;;;;;;5051296;28;20441;-52
2020/12/25 10:20:27;;;;;;;11.37;3.23;;;;;;;;;;5051017;28;20177;-51
2020/12/25 10:22:53;;;;;;;7.23;3.00;;;;;;;;;;5050942;28;20428;-51
2020/12/25 10:25:19;;;;;;;7.80;3.63;;;;;;;;;;5051107;28;20455;-50
2020/12/25 10:27:45;;;;;;;5.27;2.83;;;;;;;;;;5051171;28;20408;-51
2020/12/25 10:30:10;;;;;;;6.50;3.17;;;;;;;;;;5051006;28;20885;-51
2020/12/25 10:32:36;;;;;;;3.90;3.07;;;;;;;;;;5050643;28;20832;-51
2020/12/25 10:35:03;;;;;;;8.13;2.63;;;;;;;;;;5047954;28;20560;-50
2020/12/25 10:37:29;;;;;;;7.20;2.37;;;;;;;;;;5050794;28;20415;-51
2020/12/25 10:39:55;;;;;;;3.47;2.27;;;;;;;;;;5050883;28;20411;-51
2020/12/25 10:42:22;;;;;;;8.30;2.33;;;;;;;;;;5050496;28;20419;-51
2020/12/25 10:44:47;;;;;;;8.57;1.93;;;;;;;;;;5050951;28;20904;-51
2020/12/25 10:47:13;;;;;;;5.37;2.00;;;;;;;;;;5050745;28;20905;-51
2020/12/25 10:49:39;;;;;;;6.37;2.13;;;;;;;;;;5039044;28;20479;-50
2020/12/25 10:52:05;;;;;;;3.50;1.80;;;;;;;;;;5030540;28;20418;-51
2020/12/25 10:54:31;;;;;;;6.50;1.50;;;;;;;;;;5030707;28;20401;-51
2020/12/25 10:56:57;;;;;;;2.53;1.57;;;;;;;;;;5030798;28;20463;-51
2020/12/25 10:59:23;;;;;;;5.10;2.00;;;;;;;;;;5030539;28;20903;-50
2020/12/25 11:01:49;;;;;;;6.63;1.97;;;;;;;;;;5030391;28;20496;-50
2020/12/25 11:04:15;;;;;;;8.27;1.73;;;;;;;;;;5038867;28;20468;-51
2020/12/25 11:06:41;;;;;;;1.90;1.27;;;;;;;;;;5050636;28;20489;-50
2020/12/25 11:09:09;;;;;;;4.13;1.73;;;;;;;;;;5050601;28;20769;-50
2020/12/25 11:11:36;;;;;;;3.17;1.57;;;;;;;;;;5050241;28;20417;-50
2020/12/25 11:14:03;;;;;;;10.20;1.80;;;;;;;;;;5050595;28;20401;-50
2020/12/25 11:16:30;;;;;;;9.30;2.30;;;;;;;;;;5050128;28;20488;-50
2020/12/25 11:18:56;;;;;;;5.50;2.00;;;;;;;;;;5050097;28;20445;-51
2020/12/25 11:21:23;;;;;;;4.20;1.47;;;;;;;;;;5050072;28;20753;-51
2020/12/25 11:23:52;;;;;;;1.53;1.30;;;;;;;;;;5050528;28;20433;-50
2020/12/25 11:26:22;;;;;;;10.37;1.80;;;;;;;;;;5050537;28;20401;-51
2020/12/25 11:28:48;;;;;;;8.77;1.80;;;;;;;;;;5050284;28;20393;-51
2020/12/25 11:31:14;;;;;;;3.70;1.40;;;;;;;;;;5050111;28;20801;-50
2020/12/25 11:33:41;;;;;;;5.97;1.90;;;;;;;;;;5046241;28;20449;-51
2020/12/25 11:36:11;;;;;;;5.97;1.70;;;;;;;;;;5050482;28;20440;-51
2020/12/25 11:38:37;;;;;;;10.40;2.73;;;;;;;;;;5050174;28;20519;-50
2020/12/25 11:41:03;;;;;;;3.33;1.70;;;;;;;;;;5050330;28;20884;-51
2020/12/25 11:43:29;;;;;;;4.00;2.10;;;;;;;;;;5053729;28;20426;-51
2020/12/25 11:45:55;;;;;;;3.30;2.10;;;;;;;;;;5054028;28;20397;-51
2020/12/25 11:48:21;;;;;;;6.20;3.47;;;;;;;;;;5054256;28;20405;-50
2020/12/25 11:50:47;;;;;;;5.10;2.20;;;;;;;;;;5054145;28;20420;-51
2020/12/25 11:53:13;;;;;;;4.70;1.87;;;;;;;;;;5053965;28;20429;-51
2020/12/25 11:55:39;;;;;;;1.63;1.53;;;;;;;;;;5053952;28;20414;-51
2020/12/25 11:58:05;;;;;;;5.80;1.87;;;;;;;;;;5054006;28;20493;-50
2020/12/25 12:00:31;;;;;;;4.70;2.60;;;;;;;;;;5053832;28;20409;-50
2020/12/25 12:02:57;;;;;;;5.47;2.13;;;;;;;;;;5048854;28;20460;-51
2020/12/25 12:05:23;;;;;;;3.73;2.10;;;;;;;;;;5053632;28;20422;-51
2020/12/25 12:07:49;;;;;;;3.03;1.97;;;;;;;;;;5053548;28;20416;-50
2020/12/25 12:10:15;;;;;;;7.47;2.00;;;;;;;;;;5053691;28;20451;-50
2020/12/25 12:12:41;;;;;;;7.07;1.80;;;;;;;;;;5052146;28;20455;-50
2020/12/25 12:15:07;;;;;;;3.00;1.70;;;;;;;;;;5053355;28;20434;-51
2020/12/25 12:17:33;;;;;;;5.03;2.13;;;;;;;;;;5053521;28;20396;-50
2020/12/25 12:19:59;;;;;;;3.47;2.47;;;;;;;;;;5053481;28;20766;-50
2020/12/25 12:22:25;;;;;;;2.63;2.13;;;;;;;;;;5053281;28;20420;-51
2020/12/25 12:24:51;;;;;;;7.40;1.77;;;;;;;;;;5048781;28;20411;-50
2020/12/25 12:27:17;;;;;;;5.10;1.70;;;;;;;;;;5033409;28;20496;-50
2020/12/25 12:29:43;;;;;;;2.90;1.97;;;;;;;;;;5032309;28;20475;-51
2020/12/25 12:32:09;;;;;;;9.13;2.43;;;;;;;;;;5029696;28;20448;-50
2020/12/25 12:34:35;;;;;;;2.70;1.77;;;;;;;;;;5037582;28;20511;-51
2020/12/25 12:37:01;;;;;;;4.27;1.90;;;;;;;;;;5032067;28;20421;-50
2020/12/25 12:39:27;;;;;;;3.67;2.00;;;;;;;;;;5033069;28;20529;-50
2020/12/25 12:41:53;;;;;;;4.67;2.40;;;;;;;;;;5031595;28;20441;-50
2020/12/25 12:44:19;;;;;;;4.80;1.87;;;;;;;;;;5032764;28;20416;-50
2020/12/25 12:46:45;;;;;;;8.30;2.10;;;;;;;;;;5032827;28;20411;-51
2020/12/25 12:49:11;;;;;;;2.60;2.40;;;;;;;;;;5031209;28;20428;-51
2020/12/25 12:51:37;;;;;;;7.57;1.77;;;;;;;;;;5032306;28;20444;-50
2020/12/25 12:54:04;;;;;;;4.63;1.80;;;;;;;;;;5028655;28;20446;-51
2020/12/25 12:56:30;;;;;;;3.50;1.90;;;;;;;;;;5013016;28;20405;-50
2020/12/25 12:58:56;;;;;;;5.00;2.17;;;;;;;;;;5021694;28;20480;-50
2020/12/25 13:01:22;;;;;;;3.57;2.03;;;;;;;;;;5032418;28;20419;-50
2020/12/25 13:03:48;;;;;;;5.70;2.00;;;;;;;;;;5047399;28;20451;-50
2020/12/25 13:06:14;;;;;;;2.17;1.60;;;;;;;;;;5052397;28;20950;-51
2020/12/25 13:08:40;;;;;;;3.97;1.73;;;;;;;;;;5052562;28;20402;-50
2020/12/25 13:11:06;;;;;;;12.05;2.83;;;;;;;;;;5051256;28;20176;-50
2020/12/25 13:13:33;;;;;;;5.73;2.07;;;;;;;;;;5052165;28;20196;-51
2020/12/25 13:15:59;;;;;;;6.30;1.60;;;;;;;;;;5052231;28;20406;-50
2020/12/25 13:18:24;;;;;;;3.70;2.07;;;;;;;;;;5050962;28;20455;-51
2020/12/25 13:20:50;;;;;;;2.00;1.90;;;;;;;;;;5052211;28;20417;-51
2020/12/25 13:23:17;;;;;;;8.00;1.87;;;;;;;;;;5051636;28;20418;-50
2020/12/25 13:25:43;;;;;;;3.97;2.43;;;;;;;;;;5052263;28;20434;-51
2020/12/25 13:28:09;;;;;;;4.80;1.80;;;;;;;;;;5051949;28;20447;-50
2020/12/25 13:30:35;;;;;;;3.93;1.77;;;;;;;;;;5051887;28;20493;-51
2020/12/25 13:33:01;;;;;;;4.90;2.37;;;;;;;;;;5047594;28;20438;-51
2020/12/25 13:35:27;;;;;;;5.50;2.37;;;;;;;;;;5051812;28;20767;-50
2020/12/25 13:37:53;;;;;;;5.03;2.50;;;;;;;;;;5051796;28;20455;-50
2020/12/25 13:40:20;;;;;;;5.60;2.25;;;;;;;;;;5051603;28;20817;-50
2020/12/25 13:42:46;;;;;;;8.05;3.58;;;;;;;;;;5051269;28;20203;-50
2020/12/25 13:45:12;;;;;;;7.80;2.20;;;;;;;;;;5051395;28;20556;-50
2020/12/25 13:47:38;;;;;;;5.50;2.93;;;;;;;;;;5051750;28;20476;-50
2020/12/25 13:50:05;;;;;;;4.20;2.63;;;;;;;;;;5051900;28;20516;-50
2020/12/25 13:52:31;;;;;;;4.10;2.22;;;;;;;;;;5033369;28;20195;-51
2020/12/25 13:54:57;;;;;;;1.80;1.60;;;;;;;;;;5031247;28;20186;-49
2020/12/25 13:57:23;;;;;;;4.40;1.67;;;;;;;;;;5031604;28;20172;-50
2020/12/25 13:59:49;;;;;;;4.83;2.23;;;;;;;;;;5030829;28;20464;-51
2020/12/25 14:02:15;;;;;;;8.32;2.25;;;;;;;;;;5037819;28;20449;-48
2020/12/25 14:04:41;;;;;;;2.10;1.60;;;;;;;;;;5050289;28;20285;-48
2020/12/25 14:07:07;;;;;;;7.53;1.77;;;;;;;;;;5038851;28;20267;-49
2020/12/25 14:09:33;;;;;;;8.30;2.90;;;;;;;;;;5036870;28;20418;-51
2020/12/25 14:11:59;;;;;;;8.88;2.13;;;;;;;;;;5032700;28;20445;-51
2020/12/25 14:14:25;;;;;;;6.43;2.22;;;;;;;;;;5030474;28;20183;-49
2020/12/25 14:16:51;;;;;;;11.40;2.25;;;;;;;;;;5030456;28;20258;-50
2020/12/25 14:19:17;;;;;;;5.50;2.00;;;;;;;;;;5030854;28;20201;-52
2020/12/25 14:21:44;;;;;;;4.25;2.40;;;;;;;;;;5030632;28;20174;-52
2020/12/25 14:24:10;;;;;;;4.55;1.83;;;;;;;;;;5031072;28;20263;-48
2020/12/25 14:26:36;;;;;;;7.47;2.58;;;;;;;;;;5030679;28;20250;-49
2020/12/25 14:29:05;;;;;;;5.37;2.27;;;;;;;;;;5031064;28;20259;-48
2020/12/25 14:31:31;;;;;;;6.20;1.65;;;;;;;;;;5030749;28;20426;-51
2020/12/25 14:33:58;;;;;;;15.35;2.80;;;;;;;;;;5040877;28;20171;-50
2020/12/25 14:36:24;;;;;;;7.75;2.95;;;;;;;;;;5043830;28;20217;-49